createdAt,value
2019-05-28T00:00:02.275Z,16.35
2019-05-28T00:00:54.326Z,16.43
2019-05-28T00:01:54.325Z,16.46
2019-05-28T00:02:54.282Z,16.42
2019-05-28T00:03:54.301Z,16.46
2019-05-28T00:04:54.242Z,16.41
2019-05-28T00:05:54.196Z,16.39
2019-05-28T00:06:54.156Z,16.32
2019-05-28T00:07:54.126Z,16.28
2019-05-28T00:08:54.089Z,16.31
2019-05-28T00:09:54.080Z,16.26
2019-05-28T00:10:54.031Z,16.28
2019-05-28T00:11:54.007Z,16.31
2019-05-28T00:12:53.986Z,16.28
2019-05-28T00:13:53.943Z,16.15
2019-05-28T00:14:53.918Z,16.12
2019-05-28T00:15:53.907Z,16.10
2019-05-28T00:16:53.865Z,16.16
2019-05-28T00:17:53.818Z,16.20
2019-05-28T00:18:53.814Z,16.16
2019-05-28T00:19:53.785Z,16.16
2019-05-28T00:20:53.741Z,16.13
2019-05-28T00:21:53.707Z,16.15
2019-05-28T00:22:53.675Z,16.12
2019-05-28T00:23:53.635Z,16.15
2019-05-28T00:24:53.653Z,16.13
2019-05-28T00:25:53.571Z,16.15
2019-05-28T00:26:53.534Z,16.02
2019-05-28T00:27:53.511Z,16.05
2019-05-28T00:28:53.501Z,16.05
2019-05-28T00:29:53.447Z,16.08
2019-05-28T00:30:53.450Z,15.98
2019-05-28T00:31:53.383Z,16.09
2019-05-28T00:32:53.414Z,16.01
2019-05-28T00:33:53.343Z,16.00
2019-05-28T00:34:53.325Z,16.00
2019-05-28T00:35:53.286Z,15.90
2019-05-28T00:36:53.228Z,15.92
2019-05-28T00:37:53.232Z,15.91
2019-05-28T00:38:53.168Z,15.94
2019-05-28T00:39:53.138Z,15.84
2019-05-28T00:40:53.123Z,15.86
2019-05-28T00:41:53.074Z,15.79
2019-05-28T00:42:53.053Z,15.84
2019-05-28T00:43:53.026Z,15.80
2019-05-28T00:44:52.999Z,15.84
2019-05-28T00:45:52.952Z,15.77
2019-05-28T00:46:52.937Z,15.75
2019-05-28T00:47:52.961Z,15.75
2019-05-28T00:48:52.897Z,15.65
2019-05-28T00:49:52.850Z,15.73
2019-05-28T00:50:52.819Z,15.70
2019-05-28T00:51:52.798Z,15.73
2019-05-28T00:52:52.744Z,15.73
2019-05-28T00:53:52.731Z,15.73
2019-05-28T00:54:52.717Z,15.70
2019-05-28T00:55:52.640Z,15.65
2019-05-28T00:56:52.666Z,15.68
2019-05-28T00:57:52.619Z,15.70
2019-05-28T00:58:52.563Z,15.70
2019-05-28T00:59:52.526Z,15.67
2019-05-28T01:00:52.496Z,15.58
2019-05-28T01:01:52.474Z,15.64
2019-05-28T01:02:52.453Z,15.54
2019-05-28T01:03:52.419Z,15.57
2019-05-28T01:04:52.383Z,15.59
2019-05-28T01:05:52.343Z,15.52
2019-05-28T01:06:52.340Z,15.44
2019-05-28T01:07:52.285Z,15.52
2019-05-28T01:08:52.245Z,15.43
2019-05-28T01:09:52.220Z,15.43
2019-05-28T01:10:52.214Z,15.46
2019-05-28T01:11:52.156Z,15.40
2019-05-28T01:12:52.126Z,15.37
2019-05-28T01:13:52.095Z,15.36
2019-05-28T01:14:52.114Z,15.29
2019-05-28T01:15:52.065Z,15.29
2019-05-28T01:16:51.991Z,15.31
2019-05-28T01:17:52.002Z,15.36
2019-05-28T01:18:51.936Z,15.42
2019-05-28T01:19:51.899Z,15.37
2019-05-28T01:20:51.903Z,15.42
2019-05-28T01:21:51.900Z,15.46
2019-05-28T01:22:51.813Z,15.39
2019-05-28T01:23:51.780Z,15.35
2019-05-28T01:24:51.775Z,15.27
2019-05-28T01:25:51.725Z,15.33
2019-05-28T01:26:51.686Z,15.39
2019-05-28T01:27:51.660Z,15.25
2019-05-28T01:28:51.626Z,15.29
2019-05-28T01:29:51.615Z,15.19
2019-05-28T01:30:57.790Z,15.29
2019-05-28T01:31:51.537Z,15.27
2019-05-28T01:32:51.493Z,15.21
2019-05-28T01:33:51.489Z,15.21
2019-05-28T01:34:51.437Z,14.97
2019-05-28T01:35:51.407Z,14.97
2019-05-28T01:36:51.406Z,15.03
2019-05-28T01:37:51.384Z,15.00
2019-05-28T01:38:51.321Z,15.00
2019-05-28T01:39:51.280Z,15.03
2019-05-28T01:40:51.271Z,15.07
2019-05-28T01:41:51.251Z,15.07
2019-05-28T01:42:51.204Z,15.14
2019-05-28T01:43:51.164Z,15.09
2019-05-28T01:44:51.151Z,15.06
2019-05-28T01:45:51.095Z,15.06
2019-05-28T01:46:51.076Z,15.02
2019-05-28T01:47:51.050Z,15.00
2019-05-28T01:48:51.002Z,14.99
2019-05-28T01:49:50.965Z,15.03
2019-05-28T01:50:50.978Z,15.03
2019-05-28T01:51:50.935Z,14.97
2019-05-28T01:52:50.920Z,14.88
2019-05-28T01:53:50.846Z,14.86
2019-05-28T01:54:50.813Z,14.97
2019-05-28T01:55:50.776Z,14.82
2019-05-28T01:56:50.746Z,14.92
2019-05-28T01:57:50.720Z,14.94
2019-05-28T01:58:50.687Z,14.89
2019-05-28T01:59:50.678Z,14.88
2019-05-28T02:00:50.626Z,14.89
2019-05-28T02:01:50.584Z,14.89
2019-05-28T02:02:50.572Z,14.89
2019-05-28T02:03:50.529Z,14.85
2019-05-28T02:04:50.512Z,14.92
2019-05-28T02:05:50.474Z,15.02
2019-05-28T02:06:50.442Z,15.02
2019-05-28T02:07:50.402Z,14.99
2019-05-28T02:08:50.398Z,14.92
2019-05-28T02:09:50.357Z,14.89
2019-05-28T02:10:50.307Z,14.89
2019-05-28T02:11:50.276Z,14.86
2019-05-28T02:12:50.262Z,14.89
2019-05-28T02:13:50.217Z,14.86
2019-05-28T02:14:50.202Z,14.84
2019-05-28T02:15:50.152Z,14.82
2019-05-28T02:16:50.113Z,14.91
2019-05-28T02:17:50.083Z,14.78
2019-05-28T02:18:50.082Z,14.82
2019-05-28T02:19:50.024Z,14.82
2019-05-28T02:20:50.018Z,14.81
2019-05-28T02:21:49.964Z,14.86
2019-05-28T02:22:49.936Z,14.85
2019-05-28T02:23:49.920Z,14.86
2019-05-28T02:24:49.886Z,14.91
2019-05-28T02:25:49.834Z,14.77
2019-05-28T02:26:49.810Z,14.84
2019-05-28T02:27:49.793Z,14.82
2019-05-28T02:28:49.793Z,14.79
2019-05-28T02:29:49.709Z,14.69
2019-05-28T02:30:49.692Z,14.65
2019-05-28T02:31:49.668Z,14.58
2019-05-28T02:32:49.618Z,14.66
2019-05-28T02:33:49.577Z,14.72
2019-05-28T02:34:49.546Z,14.73
2019-05-28T02:35:49.591Z,14.77
2019-05-28T02:36:49.506Z,14.73
2019-05-28T02:37:49.474Z,14.77
2019-05-28T02:38:49.420Z,14.66
2019-05-28T02:39:49.420Z,14.70
2019-05-28T02:40:49.390Z,14.68
2019-05-28T02:41:49.337Z,14.70
2019-05-28T02:42:49.291Z,14.73
2019-05-28T02:43:49.270Z,14.77
2019-05-28T02:44:49.241Z,14.78
2019-05-28T02:45:49.201Z,14.73
2019-05-28T02:46:49.180Z,14.73
2019-05-28T02:47:49.147Z,14.73
2019-05-28T02:48:49.117Z,14.66
2019-05-28T02:49:49.100Z,14.73
2019-05-28T02:50:49.058Z,14.73
2019-05-28T02:51:49.030Z,14.54
2019-05-28T02:52:49.004Z,14.58
2019-05-28T02:53:48.970Z,14.58
2019-05-28T02:54:48.926Z,14.51
2019-05-28T02:55:48.899Z,14.53
2019-05-28T02:56:48.886Z,14.53
2019-05-28T02:57:48.829Z,14.58
2019-05-28T02:58:48.810Z,14.62
2019-05-28T02:59:48.759Z,14.62
2019-05-28T03:00:48.745Z,14.60
2019-05-28T03:01:48.697Z,14.54
2019-05-28T03:02:48.694Z,14.45
2019-05-28T03:03:48.647Z,14.45
2019-05-28T03:04:48.605Z,14.45
2019-05-28T03:05:48.575Z,14.37
2019-05-28T03:06:48.597Z,14.35
2019-05-28T03:07:48.507Z,14.43
2019-05-28T03:08:48.497Z,14.45
2019-05-28T03:09:48.477Z,14.45
2019-05-28T03:11:04.550Z,14.48
2019-05-28T03:11:48.415Z,14.43
2019-05-28T03:12:48.355Z,14.51
2019-05-28T03:13:48.322Z,14.43
2019-05-28T03:14:48.315Z,14.40
2019-05-28T03:15:48.260Z,14.37
2019-05-28T03:16:48.223Z,14.43
2019-05-28T03:17:48.196Z,14.45
2019-05-28T03:18:48.207Z,14.29
2019-05-28T03:19:48.127Z,14.35
2019-05-28T03:20:48.097Z,14.33
2019-05-28T03:21:48.073Z,14.26
2019-05-28T03:22:48.081Z,14.32
2019-05-28T03:23:48.009Z,14.23
2019-05-28T03:24:47.998Z,14.22
2019-05-28T03:25:47.970Z,14.22
2019-05-28T03:26:47.901Z,14.22
2019-05-28T03:27:47.891Z,14.11
2019-05-28T03:28:47.844Z,14.10
2019-05-28T03:29:47.813Z,14.14
2019-05-28T03:30:47.790Z,14.20
2019-05-28T03:32:05.829Z,14.20
2019-05-28T03:32:47.727Z,14.22
2019-05-28T03:33:47.688Z,14.22
2019-05-28T03:34:47.653Z,14.22
2019-05-28T03:35:47.634Z,14.07
2019-05-28T03:36:47.598Z,14.11
2019-05-28T03:37:47.570Z,14.15
2019-05-28T03:38:47.556Z,14.12
2019-05-28T03:39:47.527Z,14.15
2019-05-28T03:40:47.459Z,14.11
2019-05-28T03:41:47.470Z,14.15
2019-05-28T03:42:47.402Z,14.17
2019-05-28T03:43:47.396Z,14.14
2019-05-28T03:44:47.328Z,14.12
2019-05-28T03:45:47.324Z,14.14
2019-05-28T03:46:47.264Z,14.10
2019-05-28T03:47:47.256Z,14.14
2019-05-28T03:48:47.214Z,14.23
2019-05-28T03:49:47.215Z,14.14
2019-05-28T03:50:47.152Z,14.18
2019-05-28T03:51:47.167Z,14.14
2019-05-28T03:52:47.114Z,14.23
2019-05-28T03:53:47.048Z,14.12
2019-05-28T03:54:47.014Z,14.03
2019-05-28T03:55:46.983Z,14.10
2019-05-28T03:56:46.960Z,13.92
2019-05-28T03:57:46.919Z,13.87
2019-05-28T03:58:46.884Z,13.92
2019-05-28T03:59:46.867Z,14.04
2019-05-28T04:00:46.857Z,14.12
2019-05-28T04:01:46.793Z,13.95
2019-05-28T04:02:46.762Z,13.96
2019-05-28T04:03:46.728Z,13.78
2019-05-28T04:04:46.715Z,13.92
2019-05-28T04:05:46.655Z,13.83
2019-05-28T04:06:46.625Z,13.90
2019-05-28T04:07:46.606Z,13.78
2019-05-28T04:08:46.575Z,13.74
2019-05-28T04:09:46.538Z,13.83
2019-05-28T04:10:46.510Z,13.77
2019-05-28T04:11:46.471Z,13.74
2019-05-28T04:12:46.433Z,13.86
2019-05-28T04:13:46.400Z,13.86
2019-05-28T04:14:46.390Z,13.79
2019-05-28T04:15:46.344Z,13.81
2019-05-28T04:16:46.320Z,13.81
2019-05-28T04:17:46.277Z,13.77
2019-05-28T04:18:46.255Z,13.67
2019-05-28T04:19:46.224Z,13.77
2019-05-28T04:20:46.207Z,13.74
2019-05-28T04:21:46.152Z,13.79
2019-05-28T04:22:46.139Z,13.78
2019-05-28T04:23:46.112Z,13.78
2019-05-28T04:24:46.058Z,13.75
2019-05-28T04:25:46.046Z,13.89
2019-05-28T04:26:46.041Z,13.87
2019-05-28T04:27:45.962Z,13.79
2019-05-28T04:28:45.933Z,13.78
2019-05-28T04:29:45.918Z,13.89
2019-05-28T04:30:45.862Z,13.78
2019-05-28T04:31:45.835Z,13.83
2019-05-28T04:32:45.814Z,13.83
2019-05-28T04:33:45.767Z,13.86
2019-05-28T04:34:45.732Z,13.92
2019-05-28T04:35:45.702Z,13.93
2019-05-28T04:36:45.661Z,13.95
2019-05-28T04:37:45.632Z,13.92
2019-05-28T04:38:45.613Z,13.92
2019-05-28T04:39:45.583Z,13.93
2019-05-28T04:40:45.551Z,13.92
2019-05-28T04:41:45.522Z,13.99
2019-05-28T04:42:45.486Z,14.05
2019-05-28T04:43:45.462Z,13.99
2019-05-28T04:44:45.426Z,13.87
2019-05-28T04:45:45.386Z,13.87
2019-05-28T04:46:45.357Z,13.81
2019-05-28T04:47:45.316Z,13.90
2019-05-28T04:48:45.296Z,13.93
2019-05-28T04:49:45.265Z,13.92
2019-05-28T04:50:45.228Z,14.00
2019-05-28T04:51:45.196Z,14.00
2019-05-28T04:52:45.155Z,13.99
2019-05-28T04:53:45.154Z,13.87
2019-05-28T04:54:45.094Z,13.92
2019-05-28T04:55:45.056Z,13.93
2019-05-28T04:56:45.023Z,13.96
2019-05-28T04:57:44.992Z,13.99
2019-05-28T04:58:44.957Z,14.05
2019-05-28T04:59:44.969Z,14.03
2019-05-28T05:00:44.907Z,14.08
2019-05-28T05:01:44.913Z,14.07
2019-05-28T05:02:58.882Z,13.93
2019-05-28T05:03:44.852Z,14.07
2019-05-28T05:04:44.768Z,13.92
2019-05-28T05:05:44.733Z,13.90
2019-05-28T05:06:44.739Z,13.89
2019-05-28T05:07:44.676Z,13.87
2019-05-28T05:08:44.641Z,13.93
2019-05-28T05:09:44.603Z,13.92
2019-05-28T05:10:44.595Z,13.87
2019-05-28T05:11:44.553Z,13.93
2019-05-28T05:12:44.512Z,13.95
2019-05-28T05:13:44.496Z,14.04
2019-05-28T05:14:44.467Z,14.03
2019-05-28T05:15:47.108Z,14.00
2019-05-28T05:16:44.381Z,14.04
2019-05-28T05:17:44.350Z,14.10
2019-05-28T05:18:44.335Z,14.07
2019-05-28T05:19:44.298Z,14.18
2019-05-28T05:20:44.260Z,14.23
2019-05-28T05:21:44.291Z,14.23
2019-05-28T05:22:44.197Z,14.29
2019-05-28T05:23:44.176Z,14.29
2019-05-28T05:24:44.128Z,14.40
2019-05-28T05:25:44.098Z,14.36
2019-05-28T05:26:44.105Z,14.45
2019-05-28T05:27:44.033Z,14.33
2019-05-28T05:28:44.053Z,14.26
2019-05-28T05:29:43.974Z,14.33
2019-05-28T05:30:43.947Z,14.36
2019-05-28T05:31:43.915Z,14.32
2019-05-28T05:32:43.875Z,14.40
2019-05-28T05:33:43.867Z,14.53
2019-05-28T05:34:43.842Z,14.47
2019-05-28T05:35:43.789Z,14.33
2019-05-28T05:36:43.753Z,14.40
2019-05-28T05:37:43.737Z,14.37
2019-05-28T05:38:43.680Z,14.37
2019-05-28T05:39:43.667Z,14.37
2019-05-28T05:40:43.622Z,14.36
2019-05-28T05:41:43.587Z,14.41
2019-05-28T05:42:43.570Z,14.40
2019-05-28T05:43:43.525Z,14.44
2019-05-28T05:44:43.490Z,14.45
2019-05-28T05:45:43.461Z,14.44
2019-05-28T05:46:43.436Z,14.40
2019-05-28T05:47:43.436Z,14.40
2019-05-28T05:48:43.381Z,14.48
2019-05-28T05:49:43.340Z,14.62
2019-05-28T05:50:45.323Z,14.48
2019-05-28T05:51:43.289Z,14.59
2019-05-28T05:52:43.242Z,14.47
2019-05-28T05:53:43.213Z,14.48
2019-05-28T05:54:43.191Z,14.58
2019-05-28T05:55:43.172Z,14.58
2019-05-28T05:56:43.122Z,14.65
2019-05-28T05:57:43.121Z,14.62
2019-05-28T05:58:43.081Z,14.69
2019-05-28T05:59:43.031Z,14.65
2019-05-28T06:00:42.999Z,14.58
2019-05-28T06:01:42.958Z,14.62
2019-05-28T06:02:42.938Z,14.59
2019-05-28T06:03:42.900Z,14.62
2019-05-28T06:04:42.867Z,14.68
2019-05-28T06:05:42.827Z,14.65
2019-05-28T06:06:42.817Z,14.63
2019-05-28T06:07:42.786Z,14.70
2019-05-28T06:08:42.742Z,14.70
2019-05-28T06:09:42.741Z,14.82
2019-05-28T06:10:42.674Z,14.85
2019-05-28T06:11:42.648Z,14.91
2019-05-28T06:12:42.608Z,14.99
2019-05-28T06:13:42.579Z,15.00
2019-05-28T06:14:42.567Z,15.02
2019-05-28T06:15:42.513Z,15.04
2019-05-28T06:16:42.492Z,15.09
2019-05-28T06:17:42.451Z,15.00
2019-05-28T06:18:42.595Z,14.99
2019-05-28T06:19:42.399Z,15.02
2019-05-28T06:20:42.382Z,14.97
2019-05-28T06:21:42.327Z,15.04
2019-05-28T06:22:42.307Z,15.15
2019-05-28T06:23:42.265Z,14.97
2019-05-28T06:24:42.237Z,14.94
2019-05-28T06:25:42.217Z,15.00
2019-05-28T06:26:42.171Z,15.03
2019-05-28T06:27:42.157Z,14.99
2019-05-28T06:28:42.118Z,15.00
2019-05-28T06:29:42.083Z,15.02
2019-05-28T06:30:42.071Z,14.89
2019-05-28T06:31:42.029Z,14.96
2019-05-28T06:32:41.982Z,14.82
2019-05-28T06:33:55.666Z,14.81
2019-05-28T06:34:41.919Z,14.82
2019-05-28T06:35:41.889Z,14.82
2019-05-28T06:36:41.877Z,14.79
2019-05-28T06:37:41.857Z,14.77
2019-05-28T06:38:41.810Z,14.86
2019-05-28T06:39:41.763Z,14.94
2019-05-28T06:40:41.737Z,14.89
2019-05-28T06:41:41.729Z,14.99
2019-05-28T06:42:41.699Z,14.92
2019-05-28T06:43:41.641Z,14.99
2019-05-28T06:44:41.786Z,14.99
2019-05-28T06:45:41.584Z,14.92
2019-05-28T06:46:41.561Z,14.84
2019-05-28T06:47:45.003Z,14.85
2019-05-28T06:48:41.480Z,14.73
2019-05-28T06:49:41.446Z,14.82
2019-05-28T06:50:41.434Z,14.86
2019-05-28T06:51:41.398Z,14.85
2019-05-28T06:52:41.362Z,14.92
2019-05-28T06:53:41.329Z,14.97
2019-05-28T06:54:41.314Z,14.94
2019-05-28T06:55:41.255Z,14.97
2019-05-28T06:56:41.229Z,15.02
2019-05-28T06:57:41.193Z,14.96
2019-05-28T06:58:41.169Z,15.02
2019-05-28T06:59:41.137Z,14.97
2019-05-28T07:00:41.134Z,15.15
2019-05-28T07:01:41.079Z,15.14
2019-05-28T07:02:41.184Z,15.22
2019-05-28T07:03:41.012Z,15.10
2019-05-28T07:04:40.977Z,15.24
2019-05-28T07:05:40.966Z,15.22
2019-05-28T07:06:40.941Z,15.33
2019-05-28T07:07:40.891Z,15.39
2019-05-28T07:08:40.849Z,15.46
2019-05-28T07:09:40.846Z,15.61
2019-05-28T07:10:56.697Z,15.55
2019-05-28T07:11:40.765Z,15.52
2019-05-28T07:12:40.725Z,15.68
2019-05-28T07:13:40.732Z,15.86
2019-05-28T07:14:40.739Z,15.82
2019-05-28T07:15:40.631Z,15.84
2019-05-28T07:16:52.767Z,15.80
2019-05-28T07:17:40.577Z,15.79
2019-05-28T07:18:40.560Z,15.90
2019-05-28T07:19:40.517Z,15.91
2019-05-28T07:20:40.490Z,15.91
2019-05-28T07:21:40.453Z,15.84
2019-05-28T07:22:40.430Z,15.90
2019-05-28T07:23:40.398Z,16.00
2019-05-28T07:24:40.382Z,16.00
2019-05-28T07:25:40.333Z,15.94
2019-05-28T07:26:40.326Z,16.12
2019-05-28T07:27:40.268Z,16.08
2019-05-28T07:28:40.265Z,16.17
2019-05-28T07:29:40.221Z,16.09
2019-05-28T07:30:40.222Z,16.04
2019-05-28T07:31:40.184Z,16.08
2019-05-28T07:32:40.163Z,16.08
2019-05-28T07:33:40.097Z,16.08
2019-05-28T07:34:40.077Z,16.15
2019-05-28T07:35:45.973Z,16.20
2019-05-28T07:36:40.049Z,16.29
2019-05-28T07:37:39.972Z,16.28
2019-05-28T07:38:39.933Z,16.32
2019-05-28T07:39:40.171Z,16.32
2019-05-28T07:40:39.899Z,16.26
2019-05-28T07:41:39.843Z,16.31
2019-05-28T07:42:39.823Z,16.49
2019-05-28T07:43:39.773Z,16.46
2019-05-28T07:44:39.779Z,16.49
2019-05-28T07:45:39.713Z,16.38
2019-05-28T07:46:39.688Z,16.42
2019-05-28T07:47:39.663Z,16.36
2019-05-28T07:48:39.656Z,16.41
2019-05-28T07:49:39.594Z,16.49
2019-05-28T07:50:39.574Z,16.58
2019-05-28T07:51:39.565Z,16.68
2019-05-28T07:52:39.548Z,16.68
2019-05-28T07:53:40.736Z,16.69
2019-05-28T07:54:39.710Z,16.69
2019-05-28T07:55:39.453Z,16.71
2019-05-28T07:56:39.389Z,16.78
2019-05-28T07:57:39.375Z,16.76
2019-05-28T07:58:39.320Z,16.68
2019-05-28T07:59:39.304Z,16.74
2019-05-28T08:00:39.269Z,16.74
2019-05-28T08:01:39.234Z,16.75
2019-05-28T08:02:39.215Z,16.69
2019-05-28T08:03:39.175Z,16.74
2019-05-28T08:04:47.099Z,16.87
2019-05-28T08:05:39.125Z,16.89
2019-05-28T08:06:53.644Z,16.91
2019-05-28T08:07:39.084Z,16.90
2019-05-28T08:08:39.028Z,16.89
2019-05-28T08:09:39.003Z,16.90
2019-05-28T08:10:39.020Z,17.02
2019-05-28T08:11:38.933Z,16.99
2019-05-28T08:12:38.909Z,16.93
2019-05-28T08:13:41.143Z,17.12
2019-05-28T08:14:38.896Z,17.04
2019-05-28T08:15:38.818Z,17.02
2019-05-28T08:16:52.007Z,17.04
2019-05-28T08:17:38.806Z,17.05
2019-05-28T08:18:38.730Z,16.99
2019-05-28T08:19:38.723Z,17.09
2019-05-28T08:20:38.664Z,16.99
2019-05-28T08:21:38.659Z,17.05
2019-05-28T08:22:42.643Z,16.90
2019-05-28T08:23:38.590Z,16.91
2019-05-28T08:24:38.539Z,16.91
2019-05-28T08:25:46.737Z,16.89
2019-05-28T08:26:38.557Z,16.97
2019-05-28T08:27:38.479Z,16.93
2019-05-28T08:28:38.423Z,17.08
2019-05-28T08:29:38.397Z,17.05
2019-05-28T08:30:38.377Z,16.90
2019-05-28T08:31:38.331Z,16.74
2019-05-28T08:32:38.310Z,16.69
2019-05-28T08:33:38.308Z,16.76
2019-05-28T08:34:38.299Z,16.86
2019-05-28T08:35:38.269Z,16.83
2019-05-28T08:36:38.212Z,17.01
2019-05-28T08:37:38.191Z,17.02
2019-05-28T08:38:38.126Z,17.14
2019-05-28T08:39:38.097Z,17.23
2019-05-28T08:40:38.061Z,17.33
2019-05-28T08:41:38.040Z,17.41
2019-05-28T08:42:38.013Z,17.46
2019-05-28T08:43:37.977Z,17.54
2019-05-28T08:44:37.947Z,17.54
2019-05-28T08:45:37.925Z,17.59
2019-05-28T08:46:37.886Z,17.57
2019-05-28T08:47:37.857Z,17.36
2019-05-28T08:48:37.830Z,17.39
2019-05-28T08:49:37.802Z,17.09
2019-05-28T08:50:37.783Z,17.12
2019-05-28T08:51:37.731Z,17.04
2019-05-28T08:52:37.732Z,17.14
2019-05-28T08:53:37.682Z,17.24
2019-05-28T08:54:37.662Z,17.23
2019-05-28T08:55:37.618Z,17.20
2019-05-28T08:56:37.593Z,17.14
2019-05-28T08:57:37.811Z,17.19
2019-05-28T08:58:37.577Z,16.99
2019-05-28T08:59:37.509Z,16.84
2019-05-28T09:00:37.466Z,16.91
2019-05-28T09:01:37.447Z,17.05
2019-05-28T09:02:37.412Z,17.15
2019-05-28T09:03:37.381Z,17.24
2019-05-28T09:04:37.372Z,17.12
2019-05-28T09:05:37.324Z,17.11
2019-05-28T09:06:37.294Z,17.12
2019-05-28T09:07:37.258Z,17.19
2019-05-28T09:08:39.805Z,17.27
2019-05-28T09:09:37.204Z,17.34
2019-05-28T09:10:37.173Z,17.30
2019-05-28T09:11:37.159Z,17.36
2019-05-28T09:12:37.139Z,17.34
2019-05-28T09:13:37.079Z,17.29
2019-05-28T09:14:54.922Z,17.42
2019-05-28T09:15:37.024Z,17.33
2019-05-28T09:16:37.002Z,17.30
2019-05-28T09:17:45.642Z,17.30
2019-05-28T09:19:41.384Z,17.15
2019-05-28T09:20:41.398Z,16.91
2019-05-28T09:21:41.308Z,16.84
2019-05-28T09:22:41.284Z,16.87
2019-05-28T09:23:41.254Z,16.90
2019-05-28T09:24:41.207Z,17.04
2019-05-28T09:25:41.179Z,17.01
2019-05-28T09:26:41.158Z,16.99
2019-05-28T09:27:41.126Z,16.96
2019-05-28T09:28:41.151Z,17.01
2019-05-28T09:29:41.064Z,16.89
2019-05-28T09:30:41.041Z,16.97
2019-05-28T09:31:41.014Z,16.84
2019-05-28T09:32:41.052Z,17.01
2019-05-28T09:33:40.933Z,16.90
2019-05-28T09:34:40.921Z,16.97
2019-05-28T09:35:44.808Z,17.01
2019-05-28T09:36:40.863Z,16.99
2019-05-28T09:37:40.838Z,16.96
2019-05-28T09:38:40.793Z,16.90
2019-05-28T09:39:40.766Z,16.93
2019-05-28T09:40:49.962Z,16.91
2019-05-28T09:41:40.705Z,17.02
2019-05-28T09:42:40.676Z,16.87
2019-05-28T09:43:40.648Z,16.87
2019-05-28T09:44:40.618Z,16.91
2019-05-28T09:45:40.579Z,17.01
2019-05-28T09:46:40.555Z,17.01
2019-05-28T09:47:40.515Z,17.05
2019-05-28T09:48:40.495Z,17.02
2019-05-28T09:49:40.465Z,17.04
2019-05-28T09:50:40.427Z,17.02
2019-05-28T09:51:40.414Z,17.04
2019-05-28T09:52:53.722Z,17.02
2019-05-28T09:53:40.359Z,16.97
2019-05-28T09:54:40.311Z,17.04
2019-05-28T09:55:40.294Z,16.99
2019-05-28T09:56:40.250Z,17.05
2019-05-28T09:57:47.339Z,17.06
2019-05-28T09:58:40.206Z,17.01
2019-05-28T09:59:41.790Z,16.96
2019-05-28T10:00:56.882Z,16.69
2019-05-28T10:01:40.105Z,16.68
2019-05-28T10:02:40.077Z,16.54
2019-05-28T10:03:40.049Z,16.47
2019-05-28T10:04:49.127Z,16.41
2019-05-28T10:05:39.982Z,16.29
2019-05-28T10:06:41.780Z,16.23
2019-05-28T10:07:39.921Z,16.26
2019-05-28T10:08:39.897Z,16.26
2019-05-28T10:09:39.866Z,16.32
2019-05-28T10:10:39.850Z,16.31
2019-05-28T10:11:39.811Z,16.49
2019-05-28T10:12:39.766Z,16.47
2019-05-28T10:13:41.812Z,16.47
2019-05-28T10:14:39.721Z,16.46
2019-05-28T10:15:39.686Z,16.46
2019-05-28T10:16:39.647Z,16.46
2019-05-28T10:17:39.621Z,16.46
2019-05-28T10:18:39.605Z,16.42
2019-05-28T10:19:39.566Z,16.46
2019-05-28T10:20:39.537Z,16.41
2019-05-28T10:21:39.511Z,16.46
2019-05-28T10:22:39.471Z,16.39
2019-05-28T10:23:39.454Z,16.41
2019-05-28T10:24:39.408Z,16.46
2019-05-28T10:25:39.387Z,16.46
2019-05-28T10:26:39.364Z,16.24
2019-05-28T10:27:39.319Z,16.21
2019-05-28T10:28:39.288Z,16.24
2019-05-28T10:29:39.255Z,16.16
2019-05-28T10:30:39.227Z,16.15
2019-05-28T10:31:39.198Z,16.24
2019-05-28T10:32:39.164Z,16.29
2019-05-28T10:33:39.135Z,16.33
2019-05-28T10:34:39.113Z,16.24
2019-05-28T10:35:39.073Z,16.35
2019-05-28T10:36:39.049Z,16.29
2019-05-28T10:37:39.008Z,16.16
2019-05-28T10:38:38.976Z,16.00
2019-05-28T10:39:38.944Z,16.02
2019-05-28T10:40:38.927Z,16.00
2019-05-28T10:41:38.889Z,15.98
2019-05-28T10:42:38.853Z,15.80
2019-05-28T10:43:38.838Z,15.98
2019-05-28T10:44:38.797Z,16.15
2019-05-28T10:45:38.804Z,16.00
2019-05-28T10:46:38.738Z,16.16
2019-05-28T10:47:38.704Z,16.20
2019-05-28T10:48:38.672Z,16.00
2019-05-28T10:49:38.644Z,16.02
2019-05-28T10:50:38.617Z,15.94
2019-05-28T10:51:38.584Z,16.00
2019-05-28T10:52:38.553Z,15.91
2019-05-28T10:53:38.532Z,15.97
2019-05-28T10:54:38.499Z,15.95
2019-05-28T10:55:38.472Z,16.10
2019-05-28T10:56:38.642Z,16.24
2019-05-28T10:57:38.411Z,16.60
2019-05-28T10:58:38.374Z,16.78
2019-05-28T10:59:38.343Z,16.68
2019-05-28T11:00:38.318Z,16.69
2019-05-28T11:01:38.311Z,16.71
2019-05-28T11:02:38.250Z,16.90
2019-05-28T11:03:38.234Z,16.69
2019-05-28T11:04:38.190Z,16.60
2019-05-28T11:05:38.173Z,16.74
2019-05-28T11:06:50.929Z,16.78
2019-05-28T11:07:38.173Z,16.93
2019-05-28T11:08:38.075Z,17.16
2019-05-28T11:09:38.064Z,16.86
2019-05-28T11:10:38.021Z,17.01
2019-05-28T11:11:37.998Z,17.23
2019-05-28T11:12:37.965Z,17.46
2019-05-28T11:13:51.991Z,17.52
2019-05-28T11:14:37.910Z,17.54
2019-05-28T11:15:37.874Z,17.63
2019-05-28T11:16:37.849Z,17.52
2019-05-28T11:17:37.815Z,17.46
2019-05-28T11:18:37.792Z,16.97
2019-05-28T11:19:37.760Z,16.71
2019-05-28T11:20:37.729Z,16.72
2019-05-28T11:21:37.704Z,16.89
2019-05-28T11:22:37.671Z,16.97
2019-05-28T11:23:37.654Z,17.06
2019-05-28T11:24:37.615Z,16.72
2019-05-28T11:25:37.585Z,17.09
2019-05-28T11:26:37.557Z,16.93
2019-05-28T11:27:37.523Z,17.05
2019-05-28T11:28:37.495Z,17.22
2019-05-28T11:29:37.474Z,17.14
2019-05-28T11:30:37.446Z,17.39
2019-05-28T11:31:37.413Z,17.41
2019-05-28T11:32:37.393Z,17.42
2019-05-28T11:33:37.353Z,17.59
2019-05-28T11:34:37.333Z,17.90
2019-05-28T11:35:37.297Z,17.98
2019-05-28T11:36:37.268Z,17.79
2019-05-28T11:37:37.235Z,17.67
2019-05-28T11:38:37.216Z,17.83
2019-05-28T11:39:37.178Z,17.54
2019-05-28T11:40:37.148Z,17.49
2019-05-28T11:41:41.914Z,17.70
2019-05-28T11:42:37.109Z,17.65
2019-05-28T11:43:37.075Z,18.00
2019-05-28T11:44:37.046Z,18.26
2019-05-28T11:45:37.012Z,18.25
2019-05-28T11:46:36.989Z,18.45
2019-05-28T11:47:36.949Z,18.49
2019-05-28T11:48:36.927Z,18.78
2019-05-28T11:49:36.898Z,18.92
2019-05-28T11:50:36.868Z,18.86
2019-05-28T11:51:36.844Z,18.60
2019-05-28T11:52:36.821Z,18.58
2019-05-28T11:53:37.183Z,18.59
2019-05-28T11:54:36.757Z,18.56
2019-05-28T11:55:36.755Z,18.80
2019-05-28T11:56:36.705Z,18.41
2019-05-28T11:57:36.677Z,17.94
2019-05-28T11:58:36.649Z,18.29
2019-05-28T11:59:36.624Z,18.29
2019-05-28T12:00:36.590Z,18.41
2019-05-28T12:01:36.562Z,18.45
2019-05-28T12:02:36.534Z,18.55
2019-05-28T12:03:36.507Z,18.74
2019-05-28T12:04:36.478Z,18.75
2019-05-28T12:05:36.454Z,18.96
2019-05-28T12:06:38.341Z,18.95
2019-05-28T12:07:36.392Z,19.02
2019-05-28T12:08:36.369Z,18.92
2019-05-28T12:09:36.343Z,19.24
2019-05-28T12:10:36.310Z,19.04
2019-05-28T12:11:36.290Z,18.35
2019-05-28T12:12:36.258Z,18.25
2019-05-28T12:13:36.233Z,18.35
2019-05-28T12:14:36.198Z,18.37
2019-05-28T12:15:36.177Z,18.52
2019-05-28T12:16:36.160Z,18.86
2019-05-28T12:17:42.570Z,18.84
2019-05-28T12:18:36.091Z,18.99
2019-05-28T12:19:36.074Z,19.22
2019-05-28T12:20:36.034Z,18.99
2019-05-28T12:21:36.010Z,19.21
2019-05-28T12:22:35.991Z,19.39
2019-05-28T12:23:35.943Z,19.62
2019-05-28T12:24:35.983Z,19.37
2019-05-28T12:25:35.913Z,18.99
2019-05-28T12:26:35.887Z,18.65
2019-05-28T12:27:35.843Z,18.44
2019-05-28T12:28:37.944Z,18.75
2019-05-28T12:29:51.044Z,18.88
2019-05-28T12:30:35.760Z,19.07
2019-05-28T12:31:35.728Z,19.04
2019-05-28T12:32:35.710Z,19.29
2019-05-28T12:33:35.811Z,19.62
2019-05-28T12:34:35.646Z,19.81
2019-05-28T12:35:35.634Z,19.63
2019-05-28T12:36:35.594Z,19.95
2019-05-28T12:37:46.994Z,20.06
2019-05-28T12:38:35.548Z,20.16
2019-05-28T12:39:35.510Z,20.31
2019-05-28T12:40:47.306Z,20.00
2019-05-28T12:41:35.455Z,20.21
2019-05-28T12:42:35.445Z,20.52
2019-05-28T12:43:35.404Z,20.62
2019-05-28T12:44:42.360Z,20.75
2019-05-28T12:45:36.238Z,20.66
2019-05-28T12:46:35.329Z,20.50
2019-05-28T12:47:35.319Z,20.63
2019-05-28T12:48:35.275Z,20.51
2019-05-28T12:49:35.428Z,20.29
2019-05-28T12:50:35.230Z,20.47
2019-05-28T12:51:35.196Z,20.59
2019-05-28T12:52:35.176Z,20.19